Weather History for KMQB - April, 2013

Change the Weather History Date:

Saturday, April 6, 2013

  Actual Average (KBRL) Record (KBRL)
Temperature  
Mean Temperature 58 °F 50 °F  
Max Temperature 72 °F 62 °F 84 °F (1929)
Min Temperature 45 °F 39 °F 11 °F (1982)
Degree Days  
Heating Degree Days 7 15  
Month to date heating degree days 95  
Since 1 July heating degree days 5201  
Cooling Degree Days 0 0  
Month to date cooling degree days 0  
Year to date cooling degree days 2  
Growing Degree Days 8 (Base 50)    
Moisture  
Dew Point 35 °F    
Average Humidity 43    
Maximum Humidity 74    
Minimum Humidity 25    
Precipitation  
Precipitation 0.00 in 0.10 in 1.77 in (2006)
Month to date precipitation 0.60  
Year to date precipitation 6.25  
Sea Level Pressure  
Sea Level Pressure 29.82 in    
Wind  
Wind Speed 17 mph (South)    
Max Wind Speed 31 mph    
Max Gust Speed 41 mph    
Visibility 10 miles    
Events Rain , Thunderstorm    
T = Trace of Precipitation, MM = Missing Value Source: NWS Daily Summary

Daily Weather History Graph

Daily Weather History Graph

Search for Another Location

Airport or City:

Trip Planner

Search our weather history database for the weather conditions in past years. The results will help you decide how hot, cold, wet, or windy it might be!

Date:

Astronomy

Apr. 06, 2013 Rise Set
Actual Time 6:37 AM CDT 7:32 PM CDT
Civil Twilight 6:10 AM CDT 8:00 PM CDT
Nautical Twilight 5:37 AM CDT 8:33 PM CDT
Astronomical Twilight 5:02 AM CDT 9:07 PM CDT
Moon 4:22 AM CDT (4/6) 4:00 PM CDT (4/6)
Length of Visible Light 13h 50m
Length of Day
12h 54m
Waning Crescent, 15% of the Moon is Illuminated
Apr 6
Waning Crescent
Apr 10
New
Apr 18
First Quarter
Apr 25
Full
May 2
Last Quarter

Hourly Weather History & Observations

Time (CDT) Temp. Windchill Dew Point Humidity Pressure Visibility Wind Dir Wind Speed Gust Speed Precip Events Conditions
12:15 AM 48.4 °F - 23.4 °F 37% 30.04 in 10.0 mi ESE 13.8 mph - N/A   Clear
12:35 AM 47.7 °F - 23.0 °F 38% 30.04 in 10.0 mi ESE 15.0 mph - N/A   Scattered Clouds
12:55 AM 47.3 °F - 22.8 °F 38% 30.03 in 10.0 mi ESE 17.3 mph 20.7 mph N/A   Scattered Clouds
1:15 AM 46.9 °F - 23.0 °F 39% 30.03 in 10.0 mi SE 17.3 mph - N/A   Mostly Cloudy
1:35 AM 46.8 °F - 23.0 °F 39% 30.03 in 10.0 mi SE 15.0 mph 23.0 mph N/A   Mostly Cloudy
1:55 AM 46.4 °F 40.1 °F 23.0 °F 40% 30.03 in 10.0 mi SE 15.0 mph - N/A   Scattered Clouds
2:15 AM 46.0 °F 39.3 °F 23.4 °F 41% 30.02 in 10.0 mi SE 16.1 mph - N/A   Clear
2:35 AM 45.9 °F 38.5 °F 23.9 °F 42% 30.00 in 10.0 mi SE 18.4 mph - N/A   Scattered Clouds
2:55 AM 45.5 °F 38.9 °F 24.3 °F 43% 30.00 in 10.0 mi SE 15.0 mph 23.0 mph N/A   Scattered Clouds
3:15 AM 45.5 °F 38.6 °F 24.4 °F 44% 29.99 in 10.0 mi SE 16.1 mph - N/A   Clear
3:35 AM 45.5 °F 38.9 °F 24.8 °F 44% 29.98 in 10.0 mi SE 15.0 mph 20.7 mph N/A   Clear
3:55 AM 45.5 °F 39.2 °F 25.5 °F 46% 29.98 in 10.0 mi SE 13.8 mph - N/A   Clear
4:15 AM 45.1 °F 38.8 °F 26.1 °F 47% 29.97 in 10.0 mi SE 13.8 mph - N/A   Scattered Clouds
4:35 AM 45.1 °F 39.5 °F 26.6 °F 48% 29.97 in 10.0 mi SE 11.5 mph - N/A   Scattered Clouds
4:55 AM 45.5 °F 40.3 °F 27.5 °F 49% 29.96 in 10.0 mi SE 10.4 mph - N/A   Mostly Cloudy
5:15 AM 46.0 °F 41.0 °F 28.4 °F 50% 29.96 in 10.0 mi SE 10.4 mph - N/A   Mostly Cloudy
5:35 AM 46.4 °F 41.9 °F 29.3 °F 51% 29.96 in 10.0 mi SE 9.2 mph - N/A   Scattered Clouds
5:55 AM 46.4 °F 41.9 °F 30.2 °F 53% 29.95 in 10.0 mi SE 9.2 mph - N/A   Scattered Clouds
6:15 AM 47.3 °F - 31.8 °F 55% 29.95 in 10.0 mi SE 10.4 mph - N/A   Scattered Clouds
6:35 AM 48.0 °F - 32.5 °F 55% 29.94 in 10.0 mi SSE 10.4 mph - N/A   Mostly Cloudy
6:55 AM 48.9 °F - 33.3 °F 55% 29.94 in 10.0 mi SSE 12.7 mph - N/A   Scattered Clouds
7:15 AM 49.5 °F - 33.8 °F 55% 29.94 in 10.0 mi SSE 9.2 mph - N/A   Clear
7:35 AM 49.8 °F - 34.5 °F 56% 29.94 in 10.0 mi SSE 11.5 mph - N/A   Scattered Clouds
7:55 AM 50.5 °F - 34.9 °F 55% 29.93 in 10.0 mi SSE 13.8 mph - N/A   Mostly Cloudy
8:15 AM 51.4 °F - 35.6 °F 55% 29.92 in 10.0 mi South 19.6 mph 25.3 mph N/A   Scattered Clouds
8:35 AM 52.7 °F - 35.8 °F 53% 29.91 in 10.0 mi South 17.3 mph 24.2 mph N/A   Scattered Clouds
8:55 AM 53.4 °F - 36.0 °F 52% 29.89 in 10.0 mi South 21.9 mph - N/A   Scattered Clouds
9:15 AM 54.7 °F - 36.5 °F 50% 29.88 in 10.0 mi South 20.7 mph 25.3 mph N/A   Mostly Cloudy
9:35 AM 56.1 °F - 36.0 °F 47% 29.87 in 10.0 mi South 18.4 mph 26.5 mph N/A   Scattered Clouds
9:55 AM 57.6 °F - 35.8 °F 44% 29.86 in 10.0 mi South 20.7 mph - N/A   Mostly Cloudy
10:15 AM 59.9 °F - 34.3 °F 38% 29.83 in 10.0 mi South 24.2 mph 35.7 mph N/A   Mostly Cloudy
10:35 AM 61.5 °F - 34.5 °F 36% 29.83 in 10.0 mi South 24.2 mph 29.9 mph N/A   Clear
11:15 AM 63.1 °F - 33.4 °F 33% 29.81 in 10.0 mi South 20.7 mph 31.1 mph N/A   Mostly Cloudy
11:35 AM 65.1 °F - 33.6 °F 31% 29.80 in 10.0 mi South 24.2 mph 31.1 mph N/A   Scattered Clouds
11:55 AM 67.6 °F - 31.8 °F 26% 29.79 in 10.0 mi South 29.9 mph 39.1 mph N/A   Clear
12:15 PM 68.5 °F - 32.4 °F 26% 29.76 in 10.0 mi South 29.9 mph 39.1 mph N/A   Clear
12:35 PM 69.4 °F - 32.2 °F 25% 29.76 in 10.0 mi SSW 27.6 mph 38.0 mph N/A   Clear
12:55 PM 70.2 °F - 32.4 °F 25% 29.75 in 10.0 mi SSW 24.2 mph 41.4 mph N/A   Clear
1:15 PM 69.1 °F - 32.5 °F 26% 29.75 in 10.0 mi South 28.8 mph 33.4 mph N/A   Clear
1:35 PM 68.9 °F - 33.4 °F 27% 29.74 in 10.0 mi SSW 17.3 mph 32.2 mph N/A   Clear
1:55 PM 69.6 °F - 33.6 °F 27% 29.72 in 10.0 mi SSW 18.4 mph 23.0 mph N/A   Clear
2:15 PM 69.8 °F - 32.9 °F 26% 29.71 in 10.0 mi SSW 23.0 mph 34.5 mph N/A   Clear
2:35 PM 71.1 °F - 33.6 °F 25% 29.70 in 10.0 mi South 31.1 mph 35.7 mph N/A   Clear
2:55 PM 70.7 °F - 33.3 °F 25% 29.69 in 10.0 mi SSW 23.0 mph 32.2 mph N/A   Clear
3:15 PM 69.3 °F - 33.8 °F 27% 29.68 in 10.0 mi SSW 21.9 mph 29.9 mph N/A   Scattered Clouds
3:35 PM 71.8 °F - 35.1 °F 26% 29.68 in 10.0 mi SSW 20.7 mph 28.8 mph N/A   Scattered Clouds
3:55 PM 71.8 °F - 36.0 °F 27% 29.66 in 10.0 mi SSW 27.6 mph 35.7 mph N/A   Scattered Clouds
4:15 PM 70.7 °F - 36.7 °F 29% 29.66 in 10.0 mi SW 26.5 mph 34.5 mph N/A   Mostly Cloudy
4:35 PM 70.0 °F - 37.8 °F 31% 29.66 in 10.0 mi SW 24.2 mph 31.1 mph N/A   Mostly Cloudy
4:55 PM 69.4 °F - 38.3 °F 32% 29.67 in 10.0 mi SW 19.6 mph 32.2 mph N/A   Mostly Cloudy
5:15 PM 68.2 °F - 38.7 °F 34% 29.67 in 10.0 mi SW 25.3 mph 31.1 mph N/A   Overcast
5:35 PM 68.2 °F - 39.2 °F 35% 29.67 in 10.0 mi SW 27.6 mph 33.4 mph N/A   Overcast
5:55 PM 67.5 °F - 39.4 °F 36% 29.67 in 10.0 mi SW 24.2 mph 31.1 mph N/A   Overcast
6:15 PM 67.6 °F - 39.4 °F 36% 29.68 in 10.0 mi SW 18.4 mph 25.3 mph N/A   Overcast
6:35 PM 67.3 °F - 39.6 °F 36% 29.68 in 10.0 mi SW 15.0 mph 21.9 mph N/A   Overcast
6:55 PM 67.1 °F - 39.9 °F 37% 29.68 in 10.0 mi SW 13.8 mph 17.3 mph N/A   Overcast
7:15 PM 66.7 °F - 40.5 °F 38% 29.68 in 10.0 mi SW 10.4 mph - N/A   Overcast
7:35 PM 65.1 °F - 42.4 °F 44% 29.68 in 10.0 mi SSW 8.1 mph - N/A   Overcast
7:55 PM 65.8 °F - 43.2 °F 44% 29.67 in 10.0 mi SW 12.7 mph 17.3 mph N/A Rain Light Rain
8:15 PM 64.9 °F - 43.5 °F 46% 29.67 in 10.0 mi SSW 10.4 mph - N/A   Overcast
8:35 PM 64.4 °F - 44.1 °F 48% 29.67 in 10.0 mi SSW 10.4 mph - N/A Thunderstorm Mostly Cloudy
8:55 PM 64.8 °F - 46.4 °F 51% 29.68 in 10.0 mi SW 21.9 mph 28.8 mph N/A   Scattered Clouds
9:15 PM 63.7 °F - 48.2 °F 57% 29.68 in 10.0 mi SW 16.1 mph 20.7 mph N/A   Scattered Clouds
9:35 PM 63.5 °F - 49.1 °F 59% 29.70 in 10.0 mi SW 16.1 mph 24.2 mph N/A Thunderstorm Mostly Cloudy
9:55 PM 63.7 °F - 48.9 °F 59% 29.71 in 10.0 mi WSW 20.7 mph 34.5 mph N/A   Scattered Clouds
10:15 PM 62.2 °F - 47.7 °F 59% 29.72 in 10.0 mi West 17.3 mph 23.0 mph N/A   Clear
10:35 PM 61.7 °F - 44.4 °F 53% 29.74 in 10.0 mi West 20.7 mph 26.5 mph N/A   Clear
10:55 PM 57.2 °F - 44.6 °F 63% 29.76 in 10.0 mi WNW 15.0 mph 19.6 mph N/A   Clear
11:15 PM 55.8 °F - 44.1 °F 65% 29.76 in 10.0 mi WNW 11.5 mph - N/A   Clear
11:35 PM 53.2 °F - 43.3 °F 69% 29.77 in 10.0 mi WNW 8.1 mph - N/A   Clear
11:55 PM 50.2 °F - 42.1 °F 74% 29.78 in 10.0 mi WNW 5.8 mph - N/A   Clear